Time;durP1;ratioP1;P1;durP2;ratioP2;P2;SDS_P1;SDS_P2;PMS_P1;PMS_P2;Temp;Humidity;BMP_temperature;BMP_pressure;BME280_temperature;BME280_humidity;BME280_pressure;Samples;Min_cycle;Max_cycle;Signal;HPM_P1;HPM_P2
2023/09/14 00:00:19;;;;;;;9.23;5.10;;;13.10;99.90;;;;;;5074602;28;20177;-82
2023/09/14 00:02:45;;;;;;;6.40;5.40;;;13.10;99.90;;;;;;5040876;28;20203;-81
2023/09/14 00:05:11;;;;;;;10.83;5.97;;;13.00;99.90;;;;;;5073774;28;20430;-81
2023/09/14 00:07:36;;;;;;;7.50;4.30;;;13.00;99.90;;;;;;5074792;28;20184;-81
2023/09/14 00:10:02;;;;;;;5.77;4.60;;;12.90;99.90;;;;;;5057307;28;20414;-81
2023/09/14 00:12:28;;;;;;;12.07;5.70;;;12.80;99.90;;;;;;5074900;28;20195;-81
2023/09/14 00:14:54;;;;;;;8.40;4.83;;;12.80;99.90;;;;;;5073360;28;20970;-82
2023/09/14 00:17:19;;;;;;;6.00;4.50;;;12.80;99.90;;;;;;5073625;28;20697;-82
2023/09/14 00:19:45;;;;;;;6.97;4.33;;;12.70;99.90;;;;;;5057080;28;20558;-82
2023/09/14 00:22:10;;;;;;;11.90;4.97;;;12.70;99.90;;;;;;5074105;28;20181;-81
2023/09/14 00:24:36;;;;;;;7.33;4.63;;;12.70;99.90;;;;;;5056778;28;20183;-81
2023/09/14 00:27:03;;;;;;;21.50;5.50;;;12.70;99.90;;;;;;5057026;28;20184;-82
2023/09/14 00:29:29;;;;;;;8.50;5.00;;;12.70;99.90;;;;;;5073247;28;20176;-82
2023/09/14 00:31:54;;;;;;;14.23;4.80;;;12.70;99.90;;;;;;5073767;28;20409;-82
2023/09/14 00:34:20;;;;;;;5.07;4.57;;;12.70;99.90;;;;;;5056316;28;20181;-81
2023/09/14 00:36:46;;;;;;;6.73;4.70;;;12.60;99.90;;;;;;5056589;28;20233;-82
2023/09/14 00:39:12;;;;;;;9.63;4.80;;;12.60;99.90;;;;;;5040239;28;20187;-82
2023/09/14 00:41:37;;;;;;;10.33;5.10;;;12.60;99.90;;;;;;5073113;28;20426;-81
2023/09/14 00:44:03;;;;;;;6.13;4.93;;;12.70;99.90;;;;;;5056497;28;20180;-82
2023/09/14 00:46:29;;;;;;;8.90;5.20;;;12.70;99.90;;;;;;5072872;28;20181;-82
2023/09/14 00:48:57;;;;;;;9.40;4.83;;;12.60;99.90;;;;;;5056336;28;20411;-82
2023/09/14 00:51:24;;;;;;;5.67;4.57;;;12.60;99.90;;;;;;5074076;28;20779;-82
2023/09/14 00:53:50;;;;;;;9.67;4.80;;;12.60;99.90;;;;;;5073611;28;20418;-81
2023/09/14 00:56:18;;;;;;;12.90;5.00;;;12.60;99.90;;;;;;5056474;28;20462;-81
2023/09/14 00:58:44;;;;;;;6.73;4.10;;;12.50;99.90;;;;;;5073307;28;20431;-82
2023/09/14 01:01:10;;;;;;;8.17;4.63;;;12.50;99.90;;;;;;5060878;28;20435;-84
2023/09/14 01:03:36;;;;;;;6.60;4.20;;;12.50;99.90;;;;;;5037095;28;20495;-82
2023/09/14 01:06:02;;;;;;;6.27;4.00;;;12.40;99.90;;;;;;5053268;28;20189;-82
2023/09/14 01:08:28;;;;;;;7.33;3.97;;;12.40;99.90;;;;;;5052159;28;20514;-82
2023/09/14 01:10:54;;;;;;;9.17;5.20;;;12.40;99.90;;;;;;5036070;28;20477;-82
2023/09/14 01:13:49;;;;;;;9.30;4.50;;;12.30;99.90;;;;;;5069098;28;20174;-82
2023/09/14 01:16:28;;;;;;;6.87;4.47;;;12.30;99.90;;;;;;5053698;28;20479;-81
2023/09/14 01:19:16;;;;;;;10.10;5.00;;;12.30;99.90;;;;;;5054175;28;20404;-82
2023/09/14 01:22:26;;;;;;;5.77;4.50;;;12.30;99.90;;;;;;5068962;28;20920;-82
2023/09/14 01:25:15;;;;;;;11.83;5.17;;;12.30;99.90;;;;;;5018910;28;20528;-81
2023/09/14 01:27:41;;;;;;;6.00;4.63;;;12.30;99.90;;;;;;5051418;28;20473;-82
2023/09/14 01:30:07;;;;;;;10.37;5.10;;;12.30;99.90;;;;;;5036069;28;20452;-81
2023/09/14 01:32:33;;;;;;;6.53;4.50;;;12.20;99.90;;;;;;5052649;28;20611;-82
2023/09/14 01:34:58;;;;;;;9.50;4.73;;;12.30;99.90;;;;;;5052725;28;20466;-82
2023/09/14 01:37:25;;;;;;;6.50;4.70;;;12.30;99.90;;;;;;5035795;28;20530;-82
2023/09/14 01:39:53;;;;;;;10.60;5.57;;;12.30;99.90;;;;;;5052949;28;20177;-82
2023/09/14 01:42:21;;;;;;;6.63;5.10;;;12.30;99.90;;;;;;5056333;28;20427;-82
2023/09/14 01:44:48;;;;;;;6.20;4.53;;;12.30;99.90;;;;;;5074211;28;20403;-82
2023/09/14 01:47:14;;;;;;;5.93;4.63;;;12.30;99.90;;;;;;5072774;28;20415;-81
2023/09/14 01:49:39;;;;;;;9.63;4.90;;;12.30;99.90;;;;;;5055973;28;20430;-82
2023/09/14 01:52:11;;;;;;;13.27;5.03;;;12.30;99.90;;;;;;5072535;28;20177;-82
2023/09/14 01:54:36;;;;;;;7.50;4.30;;;12.30;99.90;;;;;;5072447;28;20177;-82
2023/09/14 01:57:02;;;;;;;16.67;5.10;;;12.30;99.90;;;;;;5056145;28;21070;-82
2023/09/14 01:59:28;;;;;;;11.30;6.00;;;12.40;99.90;;;;;;5072224;28;20183;-81
2023/09/14 02:01:53;;;;;;;9.60;5.00;;;12.40;99.90;;;;;;5055411;28;20263;-82
2023/09/14 02:04:19;;;;;;;13.30;5.57;;;12.40;99.90;;;;;;5039371;28;20189;-82
2023/09/14 02:06:44;;;;;;;6.27;5.20;;;12.40;99.90;;;;;;5055671;28;20189;-82
2023/09/14 02:09:10;;;;;;;11.77;5.20;;;12.30;99.90;;;;;;5072921;28;20204;-82
2023/09/14 02:11:36;;;;;;;9.80;5.20;;;12.30;99.90;;;;;;5072397;28;20522;-82
2023/09/14 02:14:01;;;;;;;9.93;5.40;;;12.30;99.90;;;;;;5055282;28;20184;-82
2023/09/14 02:16:27;;;;;;;8.43;5.63;;;12.20;99.90;;;;;;5071653;28;20236;-83
2023/09/14 02:18:53;;;;;;;8.53;5.60;;;12.20;99.90;;;;;;5072289;28;20268;-81
2023/09/14 02:21:19;;;;;;;9.40;6.70;;;12.10;99.90;;;;;;5052447;28;20239;-82
2023/09/14 02:23:44;;;;;;;16.77;6.17;;;12.10;99.90;;;;;;5053966;28;20423;-82
2023/09/14 02:26:10;;;;;;;9.87;5.20;;;12.10;99.90;;;;;;5072620;28;20177;-83
2023/09/14 02:28:36;;;;;;;7.90;5.97;;;12.10;99.90;;;;;;5072838;28;20169;-82
2023/09/14 02:31:07;;;;;;;7.77;5.10;;;12.00;99.90;;;;;;5072693;28;20569;-82
2023/09/14 02:33:33;;;;;;;9.10;4.80;;;12.00;99.90;;;;;;5055212;28;20185;-82
2023/09/14 02:35:59;;;;;;;9.23;5.70;;;11.90;99.90;;;;;;5055903;28;20983;-82
2023/09/14 02:38:25;;;;;;;13.73;5.60;;;11.90;99.90;;;;;;5055502;28;20192;-82
2023/09/14 02:40:51;;;;;;;12.83;4.50;;;11.90;99.90;;;;;;5055566;28;20431;-81
2023/09/14 02:43:16;;;;;;;8.03;5.27;;;11.80;99.90;;;;;;5055783;28;20238;-82
2023/09/14 02:45:42;;;;;;;8.83;5.63;;;11.90;99.90;;;;;;5072264;28;20366;-82
2023/09/14 02:48:07;;;;;;;10.37;5.53;;;11.90;99.90;;;;;;5055469;28;20188;-82
2023/09/14 02:50:33;;;;;;;8.93;4.93;;;11.90;99.90;;;;;;5054895;28;20182;-82
2023/09/14 02:52:58;;;;;;;11.53;6.00;;;11.80;99.90;;;;;;5055515;28;20273;-82
2023/09/14 02:55:24;;;;;;;7.90;5.83;;;11.80;99.90;;;;;;5076510;28;20569;-81
2023/09/14 02:57:50;;;;;;;8.13;4.87;;;11.80;99.90;;;;;;5058992;28;20188;-82
2023/09/14 03:00:17;;;;;;;6.73;5.60;;;11.70;99.90;;;;;;5058521;28;20192;-82
2023/09/14 03:02:46;;;;;;;16.93;6.13;;;11.70;99.90;;;;;;5057900;28;20422;-82
2023/09/14 03:05:12;;;;;;;11.00;5.37;;;11.70;99.90;;;;;;5076214;28;20408;-82
2023/09/14 03:07:38;;;;;;;10.20;5.60;;;11.70;99.90;;;;;;5054039;28;20440;-83
2023/09/14 03:10:05;;;;;;;5.63;4.40;;;11.70;99.90;;;;;;5070873;28;20637;-83
2023/09/14 03:12:30;;;;;;;12.80;4.97;;;11.60;99.90;;;;;;5074873;28;20502;-83
2023/09/14 03:14:56;;;;;;;8.97;5.40;;;11.50;99.90;;;;;;5074565;28;20552;-82
2023/09/14 03:17:21;;;;;;;9.80;5.43;;;11.50;99.90;;;;;;5076153;28;20664;-82
2023/09/14 03:19:48;;;;;;;8.60;5.93;;;11.50;99.90;;;;;;5075281;28;20264;-82
2023/09/14 03:22:14;;;;;;;12.83;5.27;;;11.50;99.90;;;;;;5057657;28;20630;-82
2023/09/14 03:24:40;;;;;;;9.47;4.90;;;11.50;99.90;;;;;;5074030;28;20407;-83
2023/09/14 03:27:05;;;;;;;10.80;4.83;;;11.50;99.90;;;;;;5057490;28;20923;-82
2023/09/14 03:29:31;;;;;;;6.70;4.40;;;11.50;99.90;;;;;;5073745;28;20239;-83
2023/09/14 03:31:57;;;;;;;10.20;5.23;;;11.50;99.90;;;;;;5074805;28;20177;-83
2023/09/14 03:34:22;;;;;;;13.13;5.87;;;11.50;99.90;;;;;;5074717;28;20591;-82
2023/09/14 03:36:48;;;;;;;9.20;5.10;;;11.50;99.90;;;;;;5057679;28;20234;-83
2023/09/14 03:39:13;;;;;;;9.23;5.30;;;11.30;99.90;;;;;;5053657;28;20181;-83
2023/09/14 03:41:39;;;;;;;8.47;4.73;;;11.30;99.90;;;;;;5057858;28;20526;-82
2023/09/14 03:44:05;;;;;;;7.00;4.67;;;11.20;99.90;;;;;;5038070;28;20271;-83
2023/09/14 03:46:30;;;;;;;10.10;4.67;;;11.20;99.90;;;;;;5054012;28;20637;-83
2023/09/14 03:48:56;;;;;;;10.13;4.87;;;11.20;99.90;;;;;;5060813;28;20959;-83
2023/09/14 03:51:21;;;;;;;6.93;4.90;;;11.20;99.90;;;;;;5074773;28;20234;-83
2023/09/14 03:53:47;;;;;;;11.73;5.00;;;11.10;99.90;;;;;;5074274;28;20184;-84
2023/09/14 03:56:13;;;;;;;8.93;5.20;;;11.10;99.90;;;;;;5074131;28;20243;-83
2023/09/14 03:58:39;;;;;;;10.30;5.72;;;11.10;99.90;;;;;;5073828;28;20181;-84
2023/09/14 04:01:05;;;;;;;11.30;5.70;;;11.10;99.90;;;;;;5074262;28;20311;-84
2023/09/14 04:03:30;;;;;;;10.03;6.07;;;11.10;99.90;;;;;;5074103;28;20648;-85
2023/09/14 04:05:56;;;;;;;13.23;6.73;;;11.10;99.90;;;;;;5056618;28;20585;-84
2023/09/14 04:08:23;;;;;;;9.27;6.47;;;11.10;99.90;;;;;;5056899;28;20238;-84
2023/09/14 04:10:51;;;;;;;11.00;7.40;;;11.10;99.90;;;;;;5073842;28;20601;-85
2023/09/14 04:13:32;;;;;;;8.93;8.02;;;11.10;99.90;;;;;;5057675;28;20918;-85
2023/09/14 04:15:59;;;;;;;9.50;7.88;;;11.20;99.90;;;;;;5073558;28;20224;-85
2023/09/14 04:18:25;;;;;;;10.27;7.28;;;11.10;99.90;;;;;;5070268;28;20719;-86
2023/09/14 04:20:52;;;;;;;12.73;8.10;;;11.10;99.90;;;;;;5068885;28;20231;-86
2023/09/14 04:23:17;;;;;;;12.37;7.60;;;11.10;99.90;;;;;;5095650;28;20982;-86
2023/09/14 04:25:46;;;;;;;18.57;6.80;;;11.10;99.90;;;;;;5078162;28;20506;-85
2023/09/14 04:28:16;;;;;;;11.07;5.60;;;11.00;99.90;;;;;;5070777;28;20193;-86
2023/09/14 04:30:46;;;;;;;11.10;5.78;;;11.00;99.90;;;;;;5070338;28;20703;-86
2023/09/14 04:33:13;;;;;;;7.55;5.03;;;10.90;99.90;;;;;;5055031;28;20593;-86
2023/09/14 04:35:39;;;;;;;8.30;6.25;;;10.90;99.90;;;;;;5069340;28;20216;-86
2023/09/14 04:38:09;;;;;;;10.60;7.32;;;10.90;99.90;;;;;;5075203;28;20648;-86
2023/09/14 04:40:40;;;;;;;15.55;8.45;;;10.90;99.90;;;;;;5074418;28;20178;-86
2023/09/14 04:43:06;;;;;;;13.00;9.57;;;11.00;99.90;;;;;;5057522;28;20695;-87
2023/09/14 04:45:32;;;;;;;14.93;10.20;;;11.10;99.90;;;;;;5056367;28;20436;-86
2023/09/14 04:47:59;;;;;;;13.65;9.65;;;11.20;99.90;;;;;;5073689;28;20272;-86
2023/09/14 04:50:25;;;;;;;12.57;9.95;;;11.20;99.90;;;;;;5075469;28;20177;-86
2023/09/14 04:52:50;;;;;;;13.77;9.70;;;11.20;99.90;;;;;;5093684;28;20247;-85
2023/09/14 04:55:16;;;;;;;15.00;10.17;;;11.20;99.90;;;;;;5073586;28;20234;-86
2023/09/14 04:57:41;;;;;;;18.63;11.60;;;11.20;99.90;;;;;;5075297;28;20181;-86
2023/09/14 05:00:12;;;;;;;18.37;10.60;;;11.20;99.90;;;;;;5058317;28;20260;-86
2023/09/14 05:02:38;;;;;;;26.13;12.03;;;11.30;99.90;;;;;;5056713;28;20187;-86
2023/09/14 05:05:06;;;;;;;23.52;10.93;;;11.30;99.90;;;;;;5073819;28;20423;-86
2023/09/14 05:07:32;;;;;;;31.42;11.18;;;11.30;99.90;;;;;;5073402;28;20192;-87
2023/09/14 05:09:57;;;;;;;35.55;11.63;;;11.30;99.90;;;;;;5073118;28;20188;-86
2023/09/14 05:12:23;;;;;;;26.17;11.50;;;11.40;99.90;;;;;;5074436;28;20197;-86
2023/09/14 05:14:49;;;;;;;48.00;12.60;;;11.40;99.90;;;;;;5087318;28;20236;-86
2023/09/14 05:17:14;;;;;;;30.10;12.13;;;11.40;99.90;;;;;;5071536;28;20812;-86
2023/09/14 05:19:43;;;;;;;30.80;12.97;;;11.40;99.90;;;;;;5073198;28;20249;-87
2023/09/14 05:22:12;;;;;;;27.63;11.40;;;11.50;99.90;;;;;;5072849;28;20550;-87
2023/09/14 05:24:41;;;;;;;20.50;11.20;;;11.50;99.90;;;;;;5074053;28;20427;-87
2023/09/14 05:27:07;;;;;;;21.20;11.90;;;11.50;99.90;;;;;;5056341;28;20185;-86
2023/09/14 05:29:32;;;;;;;15.70;10.35;;;11.50;99.90;;;;;;5056686;28;20423;-87
2023/09/14 05:31:59;;;;;;;19.70;11.10;;;11.50;99.90;;;;;;5072891;28;20219;-86
2023/09/14 05:34:25;;;;;;;23.87;11.40;;;11.50;99.90;;;;;;5073412;28;20184;-86
2023/09/14 05:36:52;;;;;;;12.70;10.27;;;11.50;99.90;;;;;;5073246;28;20570;-86
2023/09/14 05:39:18;;;;;;;15.60;10.40;;;11.60;99.90;;;;;;5056421;28;20682;-86
2023/09/14 05:41:46;;;;;;;15.70;9.70;;;11.60;99.90;;;;;;5073308;28;20525;-87
2023/09/14 05:44:12;;;;;;;12.50;10.30;;;11.50;99.90;;;;;;5073337;28;20563;-86
2023/09/14 05:46:38;;;;;;;16.37;10.27;;;11.50;99.90;;;;;;5072794;28;20434;-87
2023/09/14 05:49:04;;;;;;;13.73;10.30;;;11.60;99.90;;;;;;5073000;28;20263;-86
2023/09/14 05:51:30;;;;;;;13.57;10.50;;;11.50;99.90;;;;;;5055468;28;20506;-86
2023/09/14 05:53:55;;;;;;;16.00;13.03;;;11.60;99.90;;;;;;5072572;28;20411;-85
2023/09/14 05:56:22;;;;;;;13.60;10.67;;;11.60;99.90;;;;;;5073163;28;20224;-85
2023/09/14 05:58:48;;;;;;;14.83;10.00;;;11.60;99.90;;;;;;5075832;28;20204;-86
2023/09/14 06:01:14;;;;;;;16.63;9.47;;;11.60;99.90;;;;;;5060643;28;20493;-86
2023/09/14 06:03:40;;;;;;;13.60;9.53;;;11.60;99.90;;;;;;5077528;28;20185;-86
2023/09/14 06:06:05;;;;;;;14.13;10.70;;;11.70;99.90;;;;;;5059759;28;20457;-86
2023/09/14 06:08:31;;;;;;;14.77;11.13;;;11.60;99.90;;;;;;5076627;28;20488;-87
2023/09/14 06:10:58;;;;;;;20.83;11.03;;;11.70;99.90;;;;;;5076245;28;20624;-86
2023/09/14 06:13:24;;;;;;;16.33;10.87;;;11.70;99.90;;;;;;5060359;28;20494;-88
2023/09/14 06:15:49;;;;;;;15.50;11.27;;;11.80;99.90;;;;;;5077382;28;20558;-84
2023/09/14 06:18:15;;;;;;;12.30;9.33;;;11.90;99.90;;;;;;5076507;28;20185;-85
2023/09/14 06:20:41;;;;;;;16.17;11.80;;;11.90;99.90;;;;;;5075655;28;20240;-85
2023/09/14 06:23:06;;;;;;;16.87;11.40;;;12.00;99.90;;;;;;5077056;28;20189;-85
2023/09/14 06:25:32;;;;;;;14.57;11.27;;;12.10;99.90;;;;;;5076389;28;20183;-85
2023/09/14 06:27:57;;;;;;;12.77;11.30;;;12.20;99.90;;;;;;5075736;28;20177;-85
2023/09/14 06:30:23;;;;;;;16.87;12.27;;;12.30;99.90;;;;;;5077479;28;20200;-85
2023/09/14 06:32:49;;;;;;;15.20;12.30;;;12.30;99.90;;;;;;5056073;28;20190;-85
2023/09/14 06:35:15;;;;;;;18.70;14.03;;;12.30;99.90;;;;;;5058317;28;20174;-85
2023/09/14 06:37:40;;;;;;;17.57;14.37;;;12.40;99.90;;;;;;5059893;28;20186;-85
2023/09/14 06:40:07;;;;;;;24.27;18.13;;;12.40;99.90;;;;;;5043707;28;20414;-85
2023/09/14 06:42:34;;;;;;;33.10;20.00;;;12.60;99.90;;;;;;5059107;28;20177;-86
2023/09/14 06:45:00;;;;;;;28.93;18.30;;;12.70;99.90;;;;;;5076819;28;20449;-87
2023/09/14 06:47:26;;;;;;;32.10;19.40;;;12.80;99.90;;;;;;5075956;28;20430;-88
2023/09/14 06:49:52;;;;;;;35.73;21.67;;;12.70;99.90;;;;;;5055489;28;20432;-88
2023/09/14 06:52:17;;;;;;;33.13;21.47;;;12.80;99.90;;;;;;5074440;28;20181;-88
2023/09/14 06:54:45;;;;;;;45.47;22.00;;;12.80;99.90;;;;;;5059727;28;20211;-88
2023/09/14 06:57:11;;;;;;;33.37;23.07;;;12.90;99.90;;;;;;5078609;28;20303;-88
2023/09/14 06:59:36;;;;;;;42.13;23.03;;;13.00;99.90;;;;;;5076109;28;20489;-89
2023/09/14 07:02:02;;;;;;;43.40;21.50;;;13.00;99.90;;;;;;5075471;28;20275;-89
2023/09/14 07:04:28;;;;;;;50.33;24.60;;;13.10;99.90;;;;;;5055401;28;20234;-89
2023/09/14 07:06:56;;;;;;;49.33;24.23;;;13.20;99.90;;;;;;5055543;28;20189;-87
2023/09/14 07:09:23;;;;;;;51.97;26.57;;;13.20;99.90;;;;;;5039077;28;20515;-89
2023/09/14 07:11:48;;;;;;;50.50;26.70;;;13.30;99.90;;;;;;5039384;28;20424;-89
2023/09/14 07:14:14;;;;;;;54.20;26.97;;;13.40;99.90;;;;;;5022366;28;20919;-88
2023/09/14 07:16:39;;;;;;;50.70;25.13;;;13.50;99.90;;;;;;5029525;28;20228;-88
2023/09/14 07:19:05;;;;;;;52.60;27.10;;;13.60;99.90;;;;;;5057504;28;20192;-87
2023/09/14 07:21:32;;;;;;;57.27;29.17;;;13.80;99.90;;;;;;5057308;28;20191;-88
2023/09/14 07:23:59;;;;;;;63.53;30.70;;;13.80;99.90;;;;;;5058155;28;20230;-87
2023/09/14 07:26:25;;;;;;;53.33;28.90;;;14.00;99.90;;;;;;5058279;28;20474;-87
2023/09/14 07:28:51;;;;;;;56.00;29.93;;;14.10;99.90;;;;;;5055532;28;20601;-88
2023/09/14 07:31:16;;;;;;;54.37;29.50;;;14.10;99.90;;;;;;5038113;28;20634;-88
2023/09/14 07:33:45;;;;;;;54.17;30.13;;;14.20;99.90;;;;;;5037509;28;20213;-88
2023/09/14 07:36:10;;;;;;;46.67;26.97;;;14.50;99.90;;;;;;5054215;28;20209;-88
2023/09/14 07:38:38;;;;;;;44.40;27.53;;;14.40;99.90;;;;;;5055944;28;20827;-89
2023/09/14 07:41:04;;;;;;;41.43;26.50;;;14.50;99.90;;;;;;5037620;28;20644;-89
2023/09/14 07:43:29;;;;;;;41.87;24.47;;;14.60;99.90;;;;;;5054720;28;20416;-89
2023/09/14 07:45:56;;;;;;;45.80;26.77;;;14.60;99.90;;;;;;5054228;28;20177;-90
2023/09/14 07:48:22;;;;;;;47.80;27.10;;;14.80;99.90;;;;;;5054432;28;20319;-89
2023/09/14 07:50:52;;;;;;;48.63;28.10;;;15.00;99.90;;;;;;5055633;28;20862;-91
2023/09/14 07:53:18;;;;;;;49.73;27.60;;;15.20;99.90;;;;;;5056161;28;20416;-90
2023/09/14 07:55:45;;;;;;;52.10;27.63;;;15.30;99.90;;;;;;5063649;28;20521;-92
2023/09/14 07:58:13;;;;;;;45.60;25.17;;;15.40;99.90;;;;;;5059531;28;20201;-90
2023/09/14 08:00:48;;;;;;;42.47;25.47;;;15.60;99.90;;;;;;5060843;28;20420;-90
2023/09/14 08:03:18;;;;;;;37.13;22.57;;;15.50;99.90;;;;;;5060682;28;20884;-90
2023/09/14 08:05:44;;;;;;;37.80;21.70;;;15.50;99.90;;;;;;5061247;28;20430;-91
2023/09/14 08:08:10;;;;;;;38.97;23.20;;;15.50;99.90;;;;;;5061804;28;20485;-90
2023/09/14 08:10:42;;;;;;;31.70;20.97;;;15.60;99.90;;;;;;5062474;28;20449;-90
2023/09/14 08:13:07;;;;;;;33.50;20.50;;;15.60;99.90;;;;;;5046427;28;20428;-90
2023/09/14 08:15:33;;;;;;;30.50;19.30;;;15.60;99.90;;;;;;5059543;28;20506;-90
2023/09/14 08:17:59;;;;;;;31.73;20.10;;;15.70;99.90;;;;;;5061244;28;20415;-90
2023/09/14 08:20:28;;;;;;;35.80;19.43;;;15.60;99.90;;;;;;5064973;28;20664;-90
2023/09/14 08:22:57;;;;;;;33.53;18.73;;;15.70;99.90;;;;;;5077608;28;20183;-92
2023/09/14 08:25:23;;;;;;;38.43;20.53;;;15.70;99.90;;;;;;5091079;28;20433;-90
2023/09/14 08:27:49;;;;;;;31.07;20.50;;;15.80;99.90;;;;;;5077635;28;20411;-90
2023/09/14 08:30:16;;;;;;;30.43;18.93;;;15.70;99.90;;;;;;5081559;28;20415;-91
2023/09/14 08:32:42;;;;;;;32.10;20.73;;;15.80;99.90;;;;;;5062479;28;20471;-89
2023/09/14 08:35:25;;;;;;;30.63;21.07;;;15.60;99.90;;;;;;5058889;28;20466;-91
2023/09/14 08:37:58;;;;;;;32.73;20.80;;;15.70;99.90;;;;;;5102206;28;20631;-89
2023/09/14 08:40:26;;;;;;;39.20;21.20;;;15.70;99.90;;;;;;5101210;28;20410;-90
2023/09/14 08:42:54;;;;;;;32.97;21.60;;;15.80;99.90;;;;;;5098830;28;20485;-89
2023/09/14 08:45:27;;;;;;;30.63;19.33;;;15.90;99.90;;;;;;5099713;28;20422;-89
2023/09/14 08:47:54;;;;;;;28.57;20.20;;;16.10;99.90;;;;;;5096426;28;20497;-89
2023/09/14 08:50:25;;;;;;;34.10;21.33;;;16.30;99.90;;;;;;5085690;28;20443;-89
2023/09/14 08:52:51;;;;;;;26.60;18.20;;;16.40;99.90;;;;;;5077577;28;20398;-89
2023/09/14 08:55:21;;;;;;;28.60;21.10;;;16.50;99.90;;;;;;5085983;28;20435;-89
2023/09/14 08:57:47;;;;;;;25.40;17.97;;;16.90;99.90;;;;;;5095678;28;20179;-90
2023/09/14 09:00:24;;;;;;;30.10;19.80;;;17.00;99.90;;;;;;5094224;28;20877;-89
2023/09/14 09:02:52;;;;;;;26.20;20.50;;;17.10;99.90;;;;;;5093542;28;20385;-90
2023/09/14 09:05:19;;;;;;;25.57;18.63;;;17.20;99.90;;;;;;5093309;28;20917;-89
2023/09/14 09:07:47;;;;;;;23.23;16.90;;;17.20;99.90;;;;;;5092912;28;20434;-90
2023/09/14 09:10:20;;;;;;;20.47;16.47;;;17.50;99.90;;;;;;5094608;28;20410;-89
2023/09/14 09:12:46;;;;;;;23.17;17.30;;;17.40;99.90;;;;;;5092621;28;20413;-89
2023/09/14 09:15:18;;;;;;;22.23;16.77;;;17.70;99.90;;;;;;5092466;28;20469;-89
2023/09/14 09:17:44;;;;;;;19.63;16.20;;;18.50;99.90;;;;;;5092988;28;20897;-89
2023/09/14 09:20:24;;;;;;;16.53;13.97;;;18.60;99.90;;;;;;5087665;28;20389;-89
2023/09/14 09:22:55;;;;;;;18.83;14.57;;;18.70;99.90;;;;;;5071957;28;20505;-90
2023/09/14 09:25:23;;;;;;;20.97;15.87;;;18.80;99.90;;;;;;5072776;28;20442;-90
2023/09/14 09:27:59;;;;;;;20.50;15.33;;;19.20;99.90;;;;;;5072273;28;20411;-89
2023/09/14 09:30:35;;;;;;;15.87;14.03;;;19.50;99.90;;;;;;5073606;28;20464;-90
2023/09/14 09:33:02;;;;;;;13.97;12.47;;;19.80;99.90;;;;;;5081607;28;20425;-89
2023/09/14 09:35:29;;;;;;;15.03;13.43;;;20.40;99.90;;;;;;5096633;28;21078;-90
2023/09/14 09:37:57;;;;;;;19.37;15.47;;;20.90;99.90;;;;;;5096367;28;20441;-90
2023/09/14 09:40:34;;;;;;;19.90;15.70;;;20.90;99.90;;;;;;5096733;28;20399;-90
2023/09/14 09:43:05;;;;;;;15.63;13.30;;;21.70;99.90;;;;;;5096305;28;20410;-90
2023/09/14 09:45:31;;;;;;;21.77;15.60;;;21.90;99.90;;;;;;5096392;28;20422;-89
2023/09/14 09:48:01;;;;;;;18.53;16.57;;;22.70;99.90;;;;;;5096164;28;20420;-89
2023/09/14 09:50:28;;;;;;;18.50;16.60;;;23.20;99.90;;;;;;5096291;28;20418;-89
2023/09/14 09:52:53;;;;;;;17.13;15.43;;;23.20;99.90;;;;;;5097138;28;20408;-90
2023/09/14 09:55:25;;;;;;;21.30;18.33;;;23.50;99.90;;;;;;5096005;28;20497;-90
2023/09/14 09:57:54;;;;;;;16.33;14.73;;;23.60;99.90;;;;;;5095554;28;20620;-90
2023/09/14 10:00:26;;;;;;;18.30;16.40;;;23.80;99.90;;;;;;5095698;28;20449;-89
2023/09/14 10:02:53;;;;;;;19.13;16.70;;;23.00;99.90;;;;;;5096828;28;20440;-89
2023/09/14 10:05:33;;;;;;;17.67;14.87;;;23.00;99.90;;;;;;5096954;28;20402;-89
2023/09/14 10:08:00;;;;;;;15.30;13.50;;;23.00;99.90;;;;;;5095526;28;20432;-90
2023/09/14 10:10:28;;;;;;;16.97;15.17;;;24.00;99.90;;;;;;5095517;28;20421;-90
2023/09/14 10:12:55;;;;;;;17.43;14.80;;;23.80;99.90;;;;;;5095212;28;20416;-90
2023/09/14 10:15:25;;;;;;;15.73;14.07;;;24.00;99.90;;;;;;5095409;28;20470;-90
2023/09/14 10:17:54;;;;;;;14.50;11.17;;;24.30;99.90;;;;;;5095263;28;20517;-90
2023/09/14 10:20:21;;;;;;;12.60;11.30;;;23.90;99.90;;;;;;5095929;28;20520;-89
2023/09/14 10:22:48;;;;;;;12.33;11.03;;;24.30;99.90;;;;;;5086979;28;20460;-89
2023/09/14 10:25:14;;;;;;;12.53;10.63;;;24.30;99.90;;;;;;5055531;28;20443;-90
2023/09/14 10:27:43;;;;;;;11.70;10.07;;;24.20;99.90;;;;;;5055177;28;20462;-89
2023/09/14 10:30:15;;;;;;;9.60;8.60;;;24.10;99.90;;;;;;5054553;28;20830;-89
2023/09/14 10:32:43;;;;;;;11.80;10.70;;;24.90;99.90;;;;;;5080907;28;20429;-89
2023/09/14 10:35:10;;;;;;;11.40;10.20;;;25.50;99.90;;;;;;5074377;28;20794;-89
2023/09/14 10:37:40;;;;;;;11.60;10.50;;;26.20;99.90;;;;;;5074622;28;20824;-89
2023/09/14 10:40:08;;;;;;;14.63;9.23;;;25.40;99.90;;;;;;5074832;28;20506;-89
2023/09/14 10:42:33;;;;;;;9.93;8.07;;;24.60;99.90;;;;;;5074620;28;20454;-89
2023/09/14 10:44:59;;;;;;;7.93;6.40;;;24.30;99.90;;;;;;5073810;28;20443;-89
2023/09/14 10:47:31;;;;;;;6.10;5.50;;;24.00;99.90;;;;;;5054706;28;20189;-89
2023/09/14 10:49:57;;;;;;;7.23;6.53;;;23.50;99.90;;;;;;5073194;28;20185;-89
2023/09/14 10:52:28;;;;;;;6.60;5.70;;;23.90;99.90;;;;;;5057917;28;20433;-89
2023/09/14 10:54:55;;;;;;;7.13;6.10;;;23.90;99.90;;;;;;5074049;28;20497;-91
2023/09/14 10:57:23;;;;;;;9.20;6.80;;;23.70;99.90;;;;;;5074344;28;20489;-89
2023/09/14 10:59:50;;;;;;;9.60;6.57;;;22.30;99.90;;;;;;5075706;28;20413;-88
2023/09/14 11:02:43;;;;;;;8.10;5.97;;;22.40;99.90;;;;;;5075573;28;20403;-90
2023/09/14 11:05:13;;;;;;;8.00;6.77;;;22.90;99.90;;;;;;5075279;28;20404;-89
2023/09/14 11:07:48;;;;;;;9.20;6.03;;;22.90;99.90;;;;;;5074316;28;20427;-90
2023/09/14 11:10:18;;;;;;;8.30;6.40;;;22.70;99.90;;;;;;5074076;28;20516;-89
2023/09/14 11:12:44;;;;;;;6.43;5.03;;;22.90;99.90;;;;;;5074159;28;20937;-89
2023/09/14 11:15:23;;;;;;;5.80;5.20;;;23.40;99.90;;;;;;5074308;28;20463;-89
2023/09/14 11:17:53;;;;;;;7.50;6.80;;;23.30;99.90;;;;;;5074039;28;20423;-89
2023/09/14 11:20:25;;;;;;;6.10;5.50;;;23.80;99.90;;;;;;5074072;28;20459;-90
2023/09/14 11:22:52;;;;;;;8.97;5.73;;;24.30;99.90;;;;;;5073772;28;20430;-90
2023/09/14 11:25:44;;;;;;;6.00;5.30;;;24.70;99.90;;;;;;5073525;28;20506;-90
2023/09/14 11:28:21;;;;;;;7.20;6.43;;;25.20;99.90;;;;;;5071667;28;20493;-90
2023/09/14 11:30:48;;;;;;;7.90;7.03;;;25.40;99.90;;;;;;5074093;28;20783;-89
2023/09/14 11:33:15;;;;;;;7.57;6.47;;;25.50;99.90;;;;;;5073819;28;20790;-90
2023/09/14 11:35:51;;;;;;;7.77;6.97;;;26.20;99.90;;;;;;5073640;28;20462;-90
2023/09/14 11:38:25;;;;;;;7.30;5.23;;;25.90;99.90;;;;;;5073436;28;20761;-90
2023/09/14 11:40:51;;;;;;;4.83;4.20;;;26.50;99.90;;;;;;5073868;28;20840;-90
2023/09/14 11:43:21;;;;;;;4.70;4.30;;;26.80;99.90;;;;;;5073418;28;20415;-90
2023/09/14 11:45:49;;;;;;;6.47;5.87;;;26.20;99.90;;;;;;5073713;28;20180;-89
2023/09/14 11:48:20;;;;;;;5.87;5.30;;;26.50;99.90;;;;;;5073379;28;20916;-90
2023/09/14 11:50:50;;;;;;;7.17;6.50;;;26.30;99.90;;;;;;5073452;28;20426;-89
2023/09/14 11:53:18;;;;;;;6.87;5.60;;;25.80;99.90;;;;;;5073131;28;20423;-90
2023/09/14 11:55:45;;;;;;;8.10;7.00;;;25.60;99.90;;;;;;5072442;28;20462;-89
2023/09/14 11:58:12;;;;;;;6.93;5.63;;;25.90;99.90;;;;;;5073075;28;20915;-89
2023/09/14 12:00:43;;;;;;;7.53;6.17;;;25.40;99.90;;;;;;5070792;28;20853;-90
2023/09/14 12:03:09;;;;;;;7.53;5.80;;;25.50;99.90;;;;;;5053301;28;20428;-90
2023/09/14 12:05:35;;;;;;;6.47;5.20;;;25.30;99.90;;;;;;5054680;28;20442;-89
2023/09/14 12:08:21;;;;;;;6.17;5.40;;;25.70;99.90;;;;;;5062672;28;20422;-89
2023/09/14 12:10:52;;;;;;;6.00;5.40;;;25.70;99.90;;;;;;5054047;28;20416;-90
2023/09/14 12:13:18;;;;;;;7.30;4.63;;;26.20;99.90;;;;;;5052718;28;20420;-91
2023/09/14 12:15:45;;;;;;;6.57;4.70;;;26.50;99.90;;;;;;5052569;28;20509;-89
2023/09/14 12:18:16;;;;;;;5.93;5.30;;;26.50;99.90;;;;;;5052607;28;20617;-90
2023/09/14 12:20:44;;;;;;;6.43;5.83;;;26.70;99.90;;;;;;5060823;28;20514;-89
2023/09/14 12:23:13;;;;;;;5.97;5.30;;;27.10;99.90;;;;;;5072457;28;20415;-89
2023/09/14 12:25:39;;;;;;;5.83;4.93;;;26.60;99.90;;;;;;5072715;28;20444;-89
2023/09/14 12:28:07;;;;;;;5.20;4.70;;;26.90;99.90;;;;;;5072541;28;20419;-89
2023/09/14 12:30:34;;;;;;;4.90;4.50;;;27.50;99.90;;;;;;5072282;28;20420;-89
2023/09/14 12:33:02;;;;;;;7.83;5.63;;;28.00;99.90;;;;;;5073606;28;20465;-90
2023/09/14 12:35:29;;;;;;;6.73;5.03;;;28.00;99.90;;;;;;5072336;28;20427;-87
2023/09/14 12:38:02;;;;;;;6.37;4.90;;;28.10;99.90;;;;;;5072856;28;20424;-86